Time;durP1;ratioP1;P1;durP2;ratioP2;P2;SDS_P1;SDS_P2;PMS_P1;PMS_P2;Temp;Humidity;BMP_temperature;BMP_pressure;BME280_temperature;BME280_humidity;BME280_pressure;Samples;Min_cycle;Max_cycle;Signal;HPM_P1;HPM_P2
2023/10/07 00:01:37;;;;;;;21.20;9.05;;;8.60;99.90;;;;;;5048876;28;20029;-71
2023/10/07 00:04:05;;;;;;;20.85;8.60;;;8.60;99.90;;;;;;5046506;28;20042;-71
2023/10/07 00:06:34;;;;;;;23.40;9.00;;;8.50;99.90;;;;;;5048692;28;20440;-71
2023/10/07 00:09:01;;;;;;;24.08;9.18;;;8.50;99.90;;;;;;5047951;28;20033;-71
2023/10/07 00:11:27;;;;;;;19.08;8.32;;;8.40;99.90;;;;;;5047235;28;20106;-71
2023/10/07 00:13:54;;;;;;;27.30;8.88;;;8.50;99.90;;;;;;5048672;28;20135;-71
2023/10/07 00:16:23;;;;;;;19.13;8.52;;;8.40;99.90;;;;;;5046449;28;20036;-71
2023/10/07 00:18:49;;;;;;;21.95;8.45;;;8.40;99.90;;;;;;5048444;28;20025;-71
2023/10/07 00:21:26;;;;;;;19.92;7.88;;;8.40;99.90;;;;;;5047746;28;20651;-71
2023/10/07 00:23:53;;;;;;;22.80;8.63;;;8.30;99.90;;;;;;5048427;28;20040;-71
2023/10/07 00:26:19;;;;;;;17.85;8.25;;;8.30;99.90;;;;;;5047725;28;20032;-71
2023/10/07 00:28:54;;;;;;;20.17;8.50;;;8.20;99.90;;;;;;5048398;28;20036;-71
2023/10/07 00:31:23;;;;;;;25.40;9.00;;;8.20;99.90;;;;;;5047292;28;20035;-71
2023/10/07 00:39:09;;;;;;;21.15;8.48;;;8.10;99.90;;;;;;5047775;28;20033;-71
2023/10/07 00:41:58;;;;;;;20.42;8.15;;;8.00;99.90;;;;;;5048264;28;20448;-71
2023/10/07 00:44:35;;;;;;;18.05;8.02;;;8.00;99.90;;;;;;5047817;28;20029;-71
2023/10/07 00:49:42;;;;;;;18.85;8.65;;;8.00;99.90;;;;;;5048013;28;20037;-71
2023/10/07 00:52:23;;;;;;;20.60;8.68;;;8.00;99.90;;;;;;5047243;28;20029;-71
2023/10/07 01:00:56;;;;;;;20.27;8.77;;;8.00;99.90;;;;;;5047539;28;20036;-71
2023/10/07 01:03:06;;;;;;;19.25;8.57;;;8.00;99.90;;;;;;5040046;28;20401;-71
2023/10/07 01:05:35;;;;;;;23.00;8.55;;;8.00;99.90;;;;;;5047980;28;20033;-71
2023/10/07 01:08:06;;;;;;;20.48;8.90;;;7.90;99.90;;;;;;5046860;28;20029;-71
2023/10/07 01:10:31;;;;;;;20.75;8.98;;;7.90;99.90;;;;;;5048789;28;20116;-71
2023/10/07 01:13:03;;;;;;;24.08;8.45;;;7.90;99.90;;;;;;5051864;28;20140;-71
2023/10/07 01:15:30;;;;;;;18.73;7.97;;;7.80;99.90;;;;;;5047878;28;20759;-71
2023/10/07 01:18:05;;;;;;;18.25;8.10;;;7.70;99.90;;;;;;5051500;28;20497;-71
2023/10/07 01:23:17;;;;;;;18.98;8.60;;;7.80;99.90;;;;;;5050917;28;20041;-71
2023/10/07 01:25:50;;;;;;;20.25;8.80;;;7.90;99.90;;;;;;5051653;28;20412;-71
2023/10/07 01:28:16;;;;;;;24.40;10.20;;;7.90;99.90;;;;;;5050951;28;20115;-71
2023/10/07 01:33:35;;;;;;;21.45;9.50;;;8.30;99.90;;;;;;5051136;28;20041;-71
2023/10/07 01:36:35;;;;;;;22.55;8.43;;;8.40;99.90;;;;;;5050874;28;20504;-71
2023/10/07 01:38:54;;;;;;;19.58;8.32;;;8.30;99.90;;;;;;5048907;28;20135;-71
2023/10/07 01:41:22;;;;;;;22.73;8.82;;;8.10;99.90;;;;;;5050594;28;20029;-71
2023/10/07 01:44:09;;;;;;;22.42;8.93;;;8.00;99.90;;;;;;5051345;28;20029;-71
2023/10/07 01:46:37;;;;;;;17.67;8.63;;;7.90;99.90;;;;;;5049988;28;20665;-71
2023/10/07 01:49:06;;;;;;;17.80;7.63;;;7.80;99.90;;;;;;5050900;28;20115;-71
2023/10/07 01:51:32;;;;;;;20.23;8.82;;;7.80;99.90;;;;;;5051135;28;20025;-71
2023/10/07 01:54:03;;;;;;;20.10;8.25;;;7.80;99.90;;;;;;5050892;28;20370;-71
2023/10/07 01:56:30;;;;;;;17.55;8.50;;;7.80;99.90;;;;;;5051154;28;20461;-71
2023/10/07 02:01:43;;;;;;;21.35;8.40;;;7.70;99.90;;;;;;5051243;28;20861;-71
2023/10/07 02:04:20;;;;;;;19.98;7.70;;;7.60;99.90;;;;;;5050088;28;20103;-71
2023/10/07 02:06:51;;;;;;;20.05;8.30;;;7.60;99.90;;;;;;5051054;28;20112;-71
2023/10/07 02:09:25;;;;;;;26.92;8.55;;;7.60;99.90;;;;;;5050244;28;20045;-71
2023/10/07 02:11:56;;;;;;;20.35;8.18;;;7.60;99.90;;;;;;5050908;28;20086;-71
2023/10/07 02:14:24;;;;;;;;;;;7.50;99.90;;;;;;5050739;28;20025;-71
2023/10/07 02:16:52;;;;;;;21.73;8.55;;;7.50;99.90;;;;;;5050520;28;20341;-71
2023/10/07 02:19:27;;;;;;;22.70;8.20;;;7.60;99.90;;;;;;5048433;28;20133;-71
2023/10/07 02:21:59;;;;;;;22.38;8.75;;;7.60;99.90;;;;;;5049988;28;20120;-71
2023/10/07 02:24:32;;;;;;;21.48;8.63;;;7.70;99.90;;;;;;5049899;28;20060;-71
2023/10/07 02:27:04;;;;;;;17.02;8.40;;;7.70;99.90;;;;;;5050688;28;20028;-71
2023/10/07 02:29:30;;;;;;;16.83;8.20;;;7.70;99.90;;;;;;5050077;28;20037;-71
2023/10/07 02:32:07;;;;;;;18.02;7.78;;;7.60;99.90;;;;;;5050526;28;20032;-71
2023/10/07 02:34:34;;;;;;;18.92;8.10;;;7.60;99.90;;;;;;5050540;28;20090;-71
2023/10/07 02:37:12;;;;;;;16.30;7.32;;;7.60;99.90;;;;;;5049679;28;20048;-71
2023/10/07 02:39:47;;;;;;;19.95;7.55;;;7.50;99.90;;;;;;5050502;28;20051;-71
2023/10/07 02:42:51;;;;;;;17.88;7.32;;;7.50;99.90;;;;;;5049255;28;20824;-70
2023/10/07 02:47:39;;;;;;;18.63;7.57;;;7.40;99.90;;;;;;5050282;28;20029;-71
2023/10/07 02:50:07;;;;;;;16.45;7.03;;;7.20;99.90;;;;;;5049661;28;20029;-71
2023/10/07 02:52:37;;;;;;;14.48;6.60;;;7.10;99.90;;;;;;5050272;28;20469;-71
2023/10/07 02:57:55;;;;;;;18.00;7.43;;;6.90;99.90;;;;;;5050190;28;20033;-71
2023/10/07 03:00:37;;;;;;;16.17;6.90;;;6.90;99.90;;;;;;5049263;28;20025;-71
2023/10/07 03:06:00;;;;;;;20.27;7.63;;;7.00;99.90;;;;;;5049718;28;20089;-71
2023/10/07 03:08:50;;;;;;;19.27;7.47;;;6.90;99.90;;;;;;5049221;28;20029;-71
2023/10/07 03:11:20;;;;;;;15.57;7.40;;;6.90;99.90;;;;;;5048498;28;20082;-71
2023/10/07 03:13:49;;;;;;;14.75;6.60;;;6.80;99.90;;;;;;5024823;28;20029;-70
2023/10/07 03:18:56;;;;;;;17.43;7.57;;;6.60;99.90;;;;;;5049536;28;20033;-71
2023/10/07 03:21:22;;;;;;;17.50;7.53;;;6.70;99.90;;;;;;5049007;28;20036;-71
2023/10/07 03:23:48;;;;;;;18.90;7.72;;;6.80;99.90;;;;;;5049520;28;20090;-71
2023/10/07 03:26:19;;;;;;;19.70;8.52;;;6.90;99.90;;;;;;5048824;28;20067;-71
2023/10/07 03:28:51;;;;;;;19.55;7.78;;;7.00;99.90;;;;;;5049660;28;20109;-71
2023/10/07 03:31:20;;;;;;;16.33;7.45;;;7.00;99.90;;;;;;5048963;28;20124;-71
2023/10/07 03:33:51;;;;;;;18.77;7.40;;;7.00;99.90;;;;;;5048474;28;20108;-71
2023/10/07 03:41:35;;;;;;;17.83;7.55;;;6.90;99.90;;;;;;5049411;28;20481;-71
2023/10/07 03:44:02;;;;;;;17.15;8.07;;;6.80;99.90;;;;;;5049150;28;20037;-71
2023/10/07 03:46:27;;;;;;;17.73;7.35;;;6.80;99.90;;;;;;5048142;28;20618;-71
2023/10/07 03:48:55;;;;;;;20.85;6.72;;;6.60;99.90;;;;;;5049254;28;20108;-71
2023/10/07 03:51:30;;;;;;;14.52;7.35;;;6.40;99.90;;;;;;5048211;28;20053;-71
2023/10/07 03:54:02;;;;;;;14.43;6.72;;;6.40;99.90;;;;;;5048912;28;20040;-71
2023/10/07 03:56:28;;;;;;;16.92;6.55;;;6.40;99.90;;;;;;5048218;28;20048;-71
2023/10/07 03:58:55;;;;;;;19.73;6.90;;;6.30;99.90;;;;;;5048538;28;20461;-71
2023/10/07 04:01:22;;;;;;;18.63;7.00;;;6.30;99.90;;;;;;5047983;28;20025;-71
2023/10/07 04:03:50;;;;;;;19.10;7.13;;;6.30;99.90;;;;;;5048717;28;20094;-71
2023/10/07 04:06:30;;;;;;;16.60;6.72;;;6.30;99.90;;;;;;5047839;28;20115;-71
2023/10/07 04:09:05;;;;;;;19.33;7.45;;;6.30;99.90;;;;;;5048726;28;20029;-71
2023/10/07 04:11:36;;;;;;;17.25;6.82;;;6.30;99.90;;;;;;5047982;28;20634;-71
2023/10/07 04:14:19;;;;;;;21.98;7.13;;;6.40;99.90;;;;;;5048453;28;20056;-71
2023/10/07 04:17:11;;;;;;;16.25;6.72;;;6.40;99.90;;;;;;5047489;28;20036;-71
2023/10/07 04:19:53;;;;;;;18.75;6.88;;;6.30;99.90;;;;;;5048707;28;20033;-71
2023/10/07 04:22:18;;;;;;;16.48;6.97;;;6.20;99.90;;;;;;5047768;28;20117;-71
2023/10/07 04:24:44;;;;;;;18.23;7.05;;;6.10;99.90;;;;;;5048549;28;20531;-71
2023/10/07 04:27:18;;;;;;;15.00;6.43;;;6.00;99.90;;;;;;5047835;28;20041;-71
2023/10/07 04:29:45;;;;;;;16.58;6.75;;;6.00;99.90;;;;;;5048450;28;20029;-71
2023/10/07 04:32:12;;;;;;;16.30;7.03;;;6.00;99.90;;;;;;5047996;28;20033;-71
2023/10/07 04:34:50;;;;;;;18.05;6.72;;;5.90;99.90;;;;;;5048217;28;20045;-71
2023/10/07 04:37:18;;;;;;;17.10;7.28;;;6.00;99.90;;;;;;5047386;28;20045;-71
2023/10/07 04:42:22;;;;;;;16.52;7.30;;;6.10;99.90;;;;;;5027847;28;20030;-71
2023/10/07 04:50:00;;;;;;;18.40;7.82;;;6.20;99.90;;;;;;5048089;28;20025;-71
2023/10/07 04:52:28;;;;;;;24.65;7.70;;;6.10;99.90;;;;;;5047385;28;20035;-71
2023/10/07 04:54:56;;;;;;;20.08;7.50;;;6.10;99.90;;;;;;5047948;28;20017;-71
2023/10/07 04:57:43;;;;;;;23.83;7.90;;;6.10;99.90;;;;;;5047379;28;20025;-71
2023/10/07 05:00:17;;;;;;;27.13;7.90;;;6.10;99.90;;;;;;5047467;28;20032;-71
2023/10/07 05:02:43;;;;;;;24.85;8.90;;;6.20;99.90;;;;;;5046754;28;20463;-71
2023/10/07 05:05:13;;;;;;;21.05;8.45;;;6.70;99.90;;;;;;5047912;28;20032;-70
2023/10/07 05:07:39;;;;;;;20.67;8.38;;;7.30;99.90;;;;;;5047673;28;20123;-71
2023/10/07 05:10:07;;;;;;;18.33;7.53;;;7.30;99.90;;;;;;5048087;28;20032;-71
2023/10/07 05:12:34;;;;;;;13.85;5.80;;;7.20;99.90;;;;;;5047128;28;20103;-70
2023/10/07 05:15:05;;;;;;;15.85;6.45;;;6.80;99.90;;;;;;5047703;28;20033;-70
2023/10/07 05:17:36;;;;;;;17.35;6.80;;;6.40;99.90;;;;;;5037711;28;20067;-71
2023/10/07 05:20:26;;;;;;;14.63;6.32;;;6.30;99.90;;;;;;5028029;28;20112;-70
2023/10/07 05:22:51;;;;;;;17.45;6.88;;;6.20;99.90;;;;;;5027603;28;20045;-70
2023/10/07 05:25:17;;;;;;;19.92;7.30;;;6.20;99.90;;;;;;5026646;28;20479;-70
2023/10/07 05:27:44;;;;;;;21.60;7.93;;;6.40;99.90;;;;;;5027867;28;20036;-71
2023/10/07 05:30:12;;;;;;;16.45;7.32;;;6.70;99.90;;;;;;5027887;28;20032;-71
2023/10/07 05:32:39;;;;;;;16.50;6.40;;;6.90;99.90;;;;;;5027190;28;20033;-71
2023/10/07 05:35:06;;;;;;;15.52;6.63;;;6.70;99.90;;;;;;5027874;28;20451;-71
2023/10/07 05:37:32;;;;;;;21.15;7.25;;;6.30;99.90;;;;;;5027175;28;20049;-71
2023/10/07 05:39:59;;;;;;;15.93;6.82;;;6.20;99.90;;;;;;5027976;28;20033;-71
2023/10/07 05:42:25;;;;;;;17.73;6.88;;;6.20;99.90;;;;;;5027021;28;20034;-71
2023/10/07 05:44:52;;;;;;;17.13;7.20;;;6.40;99.90;;;;;;5031702;28;20106;-71
2023/10/07 05:47:18;;;;;;;17.88;8.25;;;6.40;99.90;;;;;;5047259;28;20036;-70
2023/10/07 05:49:44;;;;;;;16.05;7.53;;;6.50;99.90;;;;;;5047909;28;20037;-70
2023/10/07 05:52:09;;;;;;;17.48;7.38;;;6.40;99.90;;;;;;5047794;28;20025;-71
2023/10/07 05:54:35;;;;;;;19.48;7.82;;;6.40;99.90;;;;;;5047001;28;20031;-70
2023/10/07 05:57:04;;;;;;;16.65;7.25;;;6.40;99.90;;;;;;5047558;28;20078;-71
2023/10/07 05:59:33;;;;;;;16.95;6.97;;;6.50;99.90;;;;;;5050622;28;20037;-71
2023/10/07 06:02:01;;;;;;;15.88;6.75;;;6.40;99.90;;;;;;5051294;28;20025;-71
2023/10/07 06:04:28;;;;;;;15.73;6.75;;;6.50;99.90;;;;;;5050727;28;20021;-71
2023/10/07 06:06:54;;;;;;;20.50;6.93;;;7.00;99.90;;;;;;5051064;28;20488;-71
2023/10/07 06:09:21;;;;;;;15.43;7.05;;;7.20;99.90;;;;;;5050595;28;20037;-70
2023/10/07 06:11:48;;;;;;;17.63;6.72;;;7.50;99.90;;;;;;5050974;28;20369;-70
2023/10/07 06:14:18;;;;;;;15.52;6.18;;;7.40;99.90;;;;;;5051359;28;20064;-70
2023/10/07 06:16:44;;;;;;;16.73;6.50;;;7.50;99.90;;;;;;5051221;28;20085;-71
2023/10/07 06:19:13;;;;;;;15.77;6.47;;;7.70;99.90;;;;;;5049610;28;20140;-71
2023/10/07 06:21:50;;;;;;;14.13;5.78;;;7.70;99.90;;;;;;5049002;28;20017;-71
2023/10/07 06:24:21;;;;;;;18.00;6.00;;;7.80;99.90;;;;;;5049675;28;20033;-71
2023/10/07 06:26:48;;;;;;;13.90;6.10;;;8.20;99.90;;;;;;5049711;28;20025;-71
2023/10/07 06:29:20;;;;;;;23.15;6.82;;;8.20;99.90;;;;;;5050988;28;20124;-71
2023/10/07 06:31:55;;;;;;;17.48;6.93;;;8.60;99.90;;;;;;5051033;28;20033;-71
2023/10/07 06:34:26;;;;;;;16.30;6.43;;;8.80;99.90;;;;;;5050405;28;20037;-70
2023/10/07 06:36:55;;;;;;;24.83;6.70;;;9.10;99.90;;;;;;5050538;28;20083;-70
2023/10/07 06:39:27;;;;;;;16.05;6.13;;;9.40;99.90;;;;;;5050307;28;20040;-70
2023/10/07 06:41:55;;;;;;;13.75;5.93;;;9.60;99.90;;;;;;5050769;28;20056;-70
2023/10/07 06:44:23;;;;;;;17.30;6.20;;;9.70;99.90;;;;;;5050033;28;20040;-70
2023/10/07 06:46:55;;;;;;;17.55;6.68;;;9.90;99.90;;;;;;5049617;28;20033;-71
2023/10/07 06:49:21;;;;;;;19.75;7.55;;;10.00;99.90;;;;;;5030352;28;20030;-70
2023/10/07 06:51:56;;;;;;;16.13;6.57;;;10.20;99.90;;;;;;5030712;28;20060;-70
2023/10/07 06:54:35;;;;;;;14.32;6.78;;;10.30;99.90;;;;;;5029778;28;20084;-70
2023/10/07 06:57:04;;;;;;;13.27;5.90;;;10.40;99.90;;;;;;5030407;28;20112;-70
2023/10/07 06:59:30;;;;;;;15.85;6.15;;;10.30;99.90;;;;;;5044562;28;20401;-70
2023/10/07 07:01:56;;;;;;;14.95;6.45;;;10.40;99.90;;;;;;5045572;28;20029;-70
2023/10/07 07:04:23;;;;;;;14.77;6.15;;;10.60;99.90;;;;;;5029687;28;20115;-70
2023/10/07 07:09:57;;;;;;;14.88;5.82;;;10.90;99.90;;;;;;5007343;28;20395;-70
2023/10/07 07:12:26;;;;;;;15.20;5.65;;;10.80;99.90;;;;;;5025534;28;20462;-70
2023/10/07 07:15:08;;;;;;;17.25;6.45;;;10.70;99.90;;;;;;5033973;28;20055;-70
2023/10/07 07:22:44;;;;;;;21.60;6.95;;;10.70;99.90;;;;;;5029453;28;20103;-70
2023/10/07 07:25:39;;;;;;;16.00;5.93;;;10.70;99.90;;;;;;5030033;28;20243;-70
2023/10/07 07:28:05;;;;;;;17.85;6.25;;;10.60;99.90;;;;;;5029384;28;20092;-70
2023/10/07 07:30:35;;;;;;;15.13;5.80;;;10.60;99.90;;;;;;5029175;28;20040;-70
2023/10/07 07:33:12;;;;;;;15.90;6.30;;;10.70;99.90;;;;;;5029892;28;20041;-71
2023/10/07 07:35:39;;;;;;;14.52;5.95;;;10.70;99.90;;;;;;5029254;28;20037;-70
2023/10/07 07:40:49;;;;;;;15.35;6.40;;;11.00;99.90;;;;;;5029667;28;20612;-70
2023/10/07 07:43:19;;;;;;;14.98;6.50;;;11.10;99.90;;;;;;5029690;28;20029;-71
2023/10/07 07:45:46;;;;;;;16.65;6.43;;;11.40;99.90;;;;;;5039859;28;20741;-70
2023/10/07 07:48:12;;;;;;;17.30;7.18;;;11.70;99.90;;;;;;5049420;28;20025;-71
2023/10/07 07:50:40;;;;;;;19.67;7.32;;;11.80;99.90;;;;;;5048762;28;20025;-71
2023/10/07 07:53:06;;;;;;;16.05;7.03;;;12.00;99.90;;;;;;5049256;28;20033;-71
2023/10/07 07:55:43;;;;;;;18.17;7.07;;;12.00;99.90;;;;;;5048522;28;20515;-71
2023/10/07 07:58:10;;;;;;;15.35;6.28;;;12.00;99.90;;;;;;5049113;28;20497;-71
2023/10/07 08:00:58;;;;;;;17.63;6.47;;;12.00;99.90;;;;;;5048657;28;20025;-72
2023/10/07 08:03:27;;;;;;;21.45;6.95;;;12.10;99.90;;;;;;5048762;28;20124;-72
2023/10/07 08:05:54;;;;;;;18.90;6.85;;;12.20;99.90;;;;;;5049247;28;20071;-72
2023/10/07 08:08:24;;;;;;;16.35;6.57;;;12.30;99.90;;;;;;5048893;28;20079;-72
2023/10/07 08:10:54;;;;;;;15.45;6.30;;;12.30;99.90;;;;;;5048856;28;20178;-72
2023/10/07 08:13:23;;;;;;;17.50;6.47;;;12.30;99.90;;;;;;5049153;28;20314;-71
2023/10/07 08:15:53;;;;;;;14.27;5.93;;;12.30;99.90;;;;;;5048377;28;20174;-71
2023/10/07 08:18:28;;;;;;;11.75;5.63;;;12.30;99.90;;;;;;5048749;28;20491;-72
2023/10/07 08:21:13;;;;;;;16.60;5.72;;;12.30;99.90;;;;;;5048397;28;20021;-72
2023/10/07 08:23:40;;;;;;;18.52;6.13;;;12.50;99.90;;;;;;5046638;28;20040;-71
2023/10/07 08:26:20;;;;;;;21.63;6.47;;;12.60;99.90;;;;;;5047393;28;20057;-72
2023/10/07 08:29:18;;;;;;;14.15;5.78;;;12.70;99.90;;;;;;5048121;28;20207;-71
2023/10/07 08:31:38;;;;;;;18.30;6.30;;;12.80;99.90;;;;;;5047326;28;20045;-71
2023/10/07 08:36:36;;;;;;;16.05;5.28;;;13.40;99.90;;;;;;5047614;28;20037;-70
2023/10/07 08:39:09;;;;;;;12.25;5.75;;;13.70;99.90;;;;;;5048244;28;20481;-71
2023/10/07 08:41:37;;;;;;;16.20;6.35;;;13.90;99.90;;;;;;5048004;28;20378;-71
2023/10/07 08:44:13;;;;;;;15.48;5.60;;;14.10;99.90;;;;;;5048596;28;20128;-71
2023/10/07 08:46:40;;;;;;;15.23;5.55;;;14.30;99.90;;;;;;5047812;28;20362;-71
2023/10/07 08:49:14;;;;;;;14.35;5.55;;;14.20;99.90;;;;;;5048273;28;20747;-71
2023/10/07 08:51:42;;;;;;;14.05;5.90;;;14.10;99.90;;;;;;5047716;28;20037;-71
2023/10/07 08:54:17;;;;;;;15.27;6.00;;;14.10;99.90;;;;;;5045332;28;20028;-71
2023/10/07 08:56:54;;;;;;;12.65;5.57;;;14.00;99.90;;;;;;5047663;28;20040;-71
2023/10/07 08:59:22;;;;;;;13.02;5.63;;;13.90;99.90;;;;;;5047087;28;20316;-71
2023/10/07 09:01:57;;;;;;;11.95;5.38;;;13.90;99.90;;;;;;5046310;28;20107;-72
2023/10/07 09:04:31;;;;;;;13.48;5.65;;;14.10;99.90;;;;;;5048377;28;20033;-71
2023/10/07 09:07:08;;;;;;;11.38;5.10;;;14.10;99.90;;;;;;5048636;28;20021;-71
2023/10/07 09:09:43;;;;;;;14.85;5.93;;;14.10;99.90;;;;;;5047597;28;20037;-71
2023/10/07 09:12:29;;;;;;;13.10;5.20;;;14.10;99.90;;;;;;5048442;28;20032;-71
2023/10/07 09:14:57;;;;;;;14.02;5.45;;;14.10;99.90;;;;;;5048579;28;20093;-71
2023/10/07 09:17:26;;;;;;;14.00;4.97;;;14.10;99.90;;;;;;5048286;28;20021;-71
2023/10/07 09:19:55;;;;;;;16.23;5.45;;;14.00;99.90;;;;;;5047691;28;20033;-71
2023/10/07 09:22:24;;;;;;;14.48;5.18;;;14.10;99.90;;;;;;5048154;28;20094;-72
2023/10/07 09:25:08;;;;;;;13.93;5.07;;;14.10;99.90;;;;;;5041297;28;20048;-71
2023/10/07 09:27:37;;;;;;;14.68;5.80;;;14.20;99.90;;;;;;5027567;28;20069;-71
2023/10/07 09:30:14;;;;;;;16.48;5.28;;;14.30;99.90;;;;;;5028368;28;20029;-71
2023/10/07 09:32:42;;;;;;;14.90;5.63;;;14.40;99.90;;;;;;5030377;28;20496;-72
2023/10/07 09:35:19;;;;;;;13.60;5.57;;;14.40;99.90;;;;;;5030807;28;20439;-72
2023/10/07 09:37:46;;;;;;;15.75;5.45;;;14.40;99.90;;;;;;5029612;28;20064;-71
2023/10/07 09:41:07;;;;;;;14.43;5.15;;;14.50;99.90;;;;;;5032027;28;20075;-72
2023/10/07 09:43:13;;;;;;;14.10;4.90;;;14.60;99.90;;;;;;5031472;28;20041;-72
2023/10/07 09:45:39;;;;;;;16.92;5.53;;;14.60;99.90;;;;;;5041336;28;20029;-72
2023/10/07 09:48:08;;;;;;;14.20;4.70;;;14.70;99.90;;;;;;5051693;28;20025;-72
2023/10/07 09:50:37;;;;;;;11.60;5.13;;;14.70;99.90;;;;;;5051012;28;20082;-72
2023/10/07 09:53:18;;;;;;;13.65;4.43;;;14.80;99.90;;;;;;5051484;28;20481;-72
2023/10/07 09:56:04;;;;;;;14.57;5.93;;;14.90;99.90;;;;;;5050917;28;20095;-72
2023/10/07 09:59:13;;;;;;;13.15;5.72;;;14.90;99.90;;;;;;5051419;28;20033;-72
2023/10/07 10:02:16;;;;;;;19.20;5.25;;;14.90;99.90;;;;;;5051737;28;20033;-72
2023/10/07 10:05:11;;;;;;;13.70;4.90;;;14.90;99.90;;;;;;5054220;28;20044;-73
2023/10/07 10:07:49;;;;;;;11.38;4.38;;;15.00;99.90;;;;;;5052076;28;20028;-72
2023/10/07 10:10:15;;;;;;;15.98;4.75;;;15.10;99.90;;;;;;5050110;28;20056;-72
2023/10/07 10:18:35;;;;;;;11.40;5.05;;;15.10;99.90;;;;;;5051279;28;20052;-72
2023/10/07 10:21:09;;;;;;;19.10;4.63;;;15.10;99.90;;;;;;5050103;28;20458;-72
2023/10/07 10:23:37;;;;;;;12.93;4.82;;;15.20;99.90;;;;;;5050199;28;20037;-71
2023/10/07 10:29:15;;;;;;;13.85;4.80;;;15.40;99.90;;;;;;5027575;28;20033;-72
2023/10/07 10:31:53;;;;;;;12.45;5.07;;;15.40;99.90;;;;;;5048981;28;20361;-72
2023/10/07 10:34:20;;;;;;;14.70;4.90;;;15.40;99.90;;;;;;5051038;28;20091;-72
2023/10/07 10:36:49;;;;;;;11.27;4.82;;;15.50;99.90;;;;;;5046198;28;20458;-71
2023/10/07 10:39:22;;;;;;;13.30;4.78;;;15.50;99.90;;;;;;5050914;28;20457;-72
2023/10/07 10:41:49;;;;;;;14.80;4.63;;;15.50;99.90;;;;;;5050129;28;20091;-72
2023/10/07 10:44:16;;;;;;;11.82;4.32;;;15.50;99.90;;;;;;5050005;28;20102;-72
2023/10/07 10:46:51;;;;;;;11.07;4.60;;;15.60;99.90;;;;;;5049858;28;20021;-72
2023/10/07 10:49:20;;;;;;;10.27;4.57;;;15.70;99.90;;;;;;5050652;28;20026;-72
2023/10/07 10:51:50;;;;;;;10.32;4.30;;;15.90;99.90;;;;;;5048463;28;20486;-71
2023/10/07 10:54:20;;;;;;;9.88;4.03;;;16.00;99.90;;;;;;5047255;28;20508;-72
2023/10/07 10:56:47;;;;;;;11.63;4.28;;;16.10;99.90;;;;;;5029901;28;20095;-71
2023/10/07 10:59:18;;;;;;;12.38;4.15;;;16.20;99.90;;;;;;5029120;28;20340;-71
2023/10/07 11:01:44;;;;;;;;;;;16.40;99.90;;;;;;5030290;28;20030;-72
2023/10/07 11:04:13;;;;;;;9.85;3.78;;;16.50;99.90;;;;;;5030367;28;19917;-72
2023/10/07 11:06:41;;;;;;;13.10;4.65;;;16.50;99.90;;;;;;5029677;28;20060;-71
2023/10/07 11:09:09;;;;;;;11.23;4.45;;;16.70;99.90;;;;;;5030696;28;20030;-72
2023/10/07 11:11:36;;;;;;;9.35;4.30;;;16.80;99.90;;;;;;5030064;28;20120;-71
2023/10/07 11:14:09;;;;;;;8.65;4.20;;;16.80;99.90;;;;;;5029933;28;20037;-72
2023/10/07 11:16:46;;;;;;;12.63;4.30;;;16.90;99.90;;;;;;5047916;28;20021;-71
2023/10/07 11:19:11;;;;;;;9.13;3.70;;;16.80;99.90;;;;;;5050070;28;20040;-71
2023/10/07 11:21:41;;;;;;;9.52;4.00;;;16.80;99.90;;;;;;5049538;28;20029;-71
2023/10/07 11:24:07;;;;;;;17.73;4.47;;;16.70;99.90;;;;;;5044315;28;20396;-71
2023/10/07 11:26:33;;;;;;;12.70;4.15;;;16.80;99.90;;;;;;5030127;28;20040;-71
2023/10/07 11:29:11;;;;;;;17.17;4.60;;;16.80;99.90;;;;;;5029168;28;20034;-71
2023/10/07 11:31:37;;;;;;;14.75;4.88;;;16.80;99.90;;;;;;5029798;28;20039;-72
2023/10/07 11:34:05;;;;;;;13.77;4.70;;;16.80;99.90;;;;;;5029788;28;20033;-72
2023/10/07 11:36:50;;;;;;;11.57;4.43;;;16.90;99.90;;;;;;5028046;28;20041;-71
2023/10/07 11:39:16;;;;;;;17.30;4.57;;;17.00;99.90;;;;;;5029697;28;20492;-71
2023/10/07 11:41:42;;;;;;;10.88;4.05;;;17.00;99.90;;;;;;5029105;28;20056;-71
2023/10/07 11:44:12;;;;;;;12.38;3.97;;;17.00;99.90;;;;;;5029812;28;20073;-72
2023/10/07 11:46:41;;;;;;;14.55;3.95;;;17.10;99.90;;;;;;5046216;28;20035;-71
2023/10/07 11:49:08;;;;;;;10.95;3.92;;;17.10;99.90;;;;;;5049512;28;20064;-72
2023/10/07 11:51:34;;;;;;;9.45;3.80;;;17.10;99.90;;;;;;5049440;28;20053;-71
2023/10/07 11:54:00;;;;;;;9.82;3.80;;;17.20;99.90;;;;;;5048809;28;20589;-72
2023/10/07 11:56:27;;;;;;;9.00;3.83;;;17.20;99.90;;;;;;5048116;28;20032;-72
2023/10/07 11:58:53;;;;;;;7.40;3.58;;;17.30;99.90;;;;;;5048737;28;20025;-71
2023/10/07 12:01:20;;;;;;;14.40;4.50;;;17.30;99.90;;;;;;5049323;28;20029;-72
2023/10/07 12:03:46;;;;;;;10.07;4.10;;;17.20;99.90;;;;;;5048513;28;20037;-71
2023/10/07 12:06:12;;;;;;;9.70;3.70;;;17.20;99.90;;;;;;5049125;28;20029;-71
2023/10/07 12:08:38;;;;;;;12.07;4.20;;;17.20;99.90;;;;;;5049260;28;20377;-72
2023/10/07 12:11:05;;;;;;;9.18;3.90;;;17.20;99.90;;;;;;5048827;28;20024;-72
2023/10/07 12:13:34;;;;;;;9.95;3.97;;;17.30;99.90;;;;;;5049102;28;20040;-71
2023/10/07 12:16:00;;;;;;;11.40;4.22;;;17.30;99.90;;;;;;5048294;28;20332;-71
2023/10/07 12:18:26;;;;;;;10.23;4.22;;;17.30;99.90;;;;;;5048975;28;20115;-71
2023/10/07 12:20:55;;;;;;;9.55;3.90;;;17.30;99.90;;;;;;5048293;28;20132;-71
2023/10/07 12:23:20;;;;;;;8.85;4.13;;;17.20;99.90;;;;;;5048853;28;20049;-71
2023/10/07 12:25:46;;;;;;;9.63;3.88;;;17.20;99.90;;;;;;5048102;28;20130;-71
2023/10/07 12:28:13;;;;;;;13.00;4.32;;;17.20;99.90;;;;;;5046541;28;20025;-71
2023/10/07 12:30:39;;;;;;;13.35;3.70;;;17.20;99.90;;;;;;5048448;28;20044;-70
2023/10/07 12:33:04;;;;;;;12.73;4.03;;;17.30;99.90;;;;;;5048246;28;20037;-72
2023/10/07 12:35:33;;;;;;;10.60;4.63;;;17.40;99.90;;;;;;5047330;28;20446;-71
2023/10/07 12:38:00;;;;;;;8.68;3.70;;;17.60;99.90;;;;;;5047786;28;20658;-71
2023/10/07 12:40:28;;;;;;;10.48;3.72;;;17.80;99.90;;;;;;5048550;28;20529;-72
2023/10/07 12:42:56;;;;;;;9.48;3.70;;;17.80;99.90;;;;;;5048125;28;20047;-72
2023/10/07 12:45:22;;;;;;;10.07;3.70;;;17.90;99.90;;;;;;5048588;28;20026;-72
2023/10/07 12:47:51;;;;;;;10.50;5.10;;;17.90;99.90;;;;;;5046429;28;20033;-72
2023/10/07 12:50:20;;;;;;;10.63;3.95;;;18.00;99.90;;;;;;5047205;28;20029;-70
2023/10/07 12:52:50;;;;;;;9.88;4.03;;;18.10;99.90;;;;;;5044330;28;20390;-71
2023/10/07 12:55:17;;;;;;;12.73;4.20;;;18.30;99.90;;;;;;5048505;28;20065;-71
2023/10/07 12:57:43;;;;;;;9.45;3.72;;;18.20;99.90;;;;;;5048018;28;20043;-71
2023/10/07 13:00:19;;;;;;;10.50;3.90;;;18.10;99.90;;;;;;5048558;28;20033;-71
2023/10/07 13:02:49;;;;;;;9.40;3.55;;;17.90;99.90;;;;;;5046119;28;20037;-71
2023/10/07 13:05:18;;;;;;;12.10;4.03;;;17.70;99.90;;;;;;5048432;28;20488;-71
2023/10/07 13:07:48;;;;;;;8.98;3.72;;;17.70;99.90;;;;;;5053323;28;20124;-71
2023/10/07 13:10:15;;;;;;;13.93;4.43;;;17.70;99.90;;;;;;5055157;28;20497;-76
2023/10/07 13:12:41;;;;;;;10.20;4.18;;;17.60;99.90;;;;;;5054759;28;20044;-71
2023/10/07 13:15:14;;;;;;;13.77;4.07;;;17.60;99.90;;;;;;5054508;28;20025;-71
2023/10/07 13:17:45;;;;;;;12.07;3.70;;;17.50;99.90;;;;;;5055109;28;20025;-72
2023/10/07 13:20:23;;;;;;;11.25;3.88;;;17.40;99.90;;;;;;5054972;28;20036;-70
2023/10/07 13:22:49;;;;;;;13.32;4.10;;;17.40;99.90;;;;;;5054121;28;20068;-71
2023/10/07 13:25:17;;;;;;;10.77;4.40;;;17.30;99.90;;;;;;5053149;28;20037;-71
2023/10/07 13:27:43;;;;;;;13.45;4.05;;;17.40;99.90;;;;;;5054720;28;20024;-71
2023/10/07 13:30:13;;;;;;;8.82;4.28;;;17.40;99.90;;;;;;5051668;28;20017;-71
2023/10/07 13:32:46;;;;;;;12.40;3.80;;;17.50;99.90;;;;;;5033528;28;20026;-71
2023/10/07 13:35:16;;;;;;;10.73;4.20;;;17.60;99.90;;;;;;5035051;28;20078;-71
2023/10/07 13:37:46;;;;;;;10.43;3.80;;;17.60;99.90;;;;;;5034830;28;20041;-71
2023/10/07 13:40:15;;;;;;;10.63;4.25;;;17.70;99.90;;;;;;5035115;28;20116;-71
2023/10/07 13:43:09;;;;;;;10.48;3.80;;;17.80;99.90;;;;;;5034943;28;20127;-71
2023/10/07 13:45:35;;;;;;;10.63;3.95;;;18.00;99.90;;;;;;5041271;28;20037;-72
2023/10/07 13:48:03;;;;;;;15.98;4.40;;;18.00;99.90;;;;;;5054084;28;20079;-72
2023/10/07 13:50:29;;;;;;;9.57;4.03;;;18.10;99.90;;;;;;5054862;28;20024;-72
2023/10/07 13:58:00;;;;;;;10.40;3.53;;;18.00;99.90;;;;;;5054033;28;20029;-71
2023/10/07 14:00:36;;;;;;;8.20;3.17;;;18.00;99.90;;;;;;5054555;28;20036;-72
2023/10/07 14:03:06;;;;;;;14.85;3.65;;;18.00;99.90;;;;;;5053809;28;20029;-72
2023/10/07 14:05:41;;;;;;;7.97;3.42;;;18.00;99.90;;;;;;5054724;28;20028;-72
2023/10/07 14:08:16;;;;;;;12.82;3.40;;;18.10;99.90;;;;;;5053921;28;20200;-71
2023/10/07 14:10:55;;;;;;;10.38;3.63;;;18.40;99.90;;;;;;5054471;28;20033;-71
2023/10/07 14:13:26;;;;;;;12.50;3.55;;;18.70;99.90;;;;;;5054652;28;20064;-72
2023/10/07 14:15:53;;;;;;;10.68;3.80;;;18.80;99.90;;;;;;5053796;28;20028;-72